• Join FlightAware (Why Join?)
  • Login
  • US Flag 
11:12AM EDT


 

Airport Tracker/Info


-or-


 

Live Flight TrackerFlight Track Log ✈ N84WS ✈ 23-Jun-2013 ✈ KACK - KBED

Flight Track Log - Related Links

Times and Time Zones

All times are in EDT time to prevent confusion due to time zone crossing. See the N84WS flight status page for this flight to view local times or setup timezone preferences in your user account.

Time Position Orientation Groundspeed Altitude Reporting Facility
EDT Latitude Longitude Course Direction KTS MPH feet Rate Location/Type
11:54AM 41.4310 -70.2015 329° Northwest  Level FlightAware Approximate
11:55AM 41.4617 -70.2257 330° Northwest  Level FlightAware Approximate
11:56AM 41.4926 -70.2495 330° Northwest  Level FlightAware Approximate
11:57AM 41.5234 -70.2734 330° Northwest  Level FlightAware Approximate
11:58AM 41.5542 -70.2972 330° Northwest  Level FlightAware Approximate
11:59AM 41.5851 -70.3211 330° Northwest  Level FlightAware Approximate
12:00PM 41.6159 -70.3450 330° Northwest  Level FlightAware Approximate
12:01PM 41.6467 -70.3690 330° Northwest  Level FlightAware Approximate
12:02PM 41.6776 -70.3929 330° Northwest  Level FlightAware Approximate
12:03PM 41.7084 -70.4169 330° Northwest  Level FlightAware Approximate
12:04PM 41.7392 -70.4409 330° Northwest  Level FlightAware Approximate
12:05PM 41.7700 -70.4650 330° Northwest  Level FlightAware Approximate
12:05PM 41.7833 -70.4667 317° Northwest 137 158 3,900  Level KA90
12:06PM 41.8008 -70.4890 330° Northwest  Level FlightAware Approximate
12:06PM 41.8000 -70.4833 323° Northwest 139 160 3,900  Level KA90
12:07PM 41.8316 -70.5131 330° Northwest  Level FlightAware Approximate
12:07PM 41.8333 -70.5167 323° Northwest 140 161 3,900  Level KA90
12:08PM 41.8624 -70.5372 330° Northwest  Level FlightAware Approximate
12:08PM 41.8667 -70.5500 323° Northwest 141 162 3,900  Level KA90
12:09PM 41.8931 -70.5613 330° Northwest  Level FlightAware Approximate
12:09PM 41.9000 -70.5833 323° Northwest 139 160 3,900  Level KA90
12:10PM 41.9203 -70.5920 317° Northwest  Level FlightAware Approximate
12:10PM 41.9333 -70.6167 323° Northwest 138 159 3,900  Level KA90
12:11PM 41.9500 -70.6500 304° West 140 161 3,900  Level KA90
12:12PM 41.9667 -70.7000 294° West 136 157 3,900  Level KA90
12:13PM 42.0000 -70.7333 323° Northwest 133 153 3,900  Level KA90
12:14PM 42.0000 -70.7833 270° West 131 151 3,900  Level KA90
12:15PM 42.0000 -70.8333 270° West 131 151 3,900  Level KA90
12:16PM 42.0167 -70.8833 294° West 135 155 3,900 -180 Level KA90
12:17PM 42.0167 -70.9333 270° West 136 157 3,600 -360 Descending KA90
12:18PM 42.0333 -70.9833 294° West 146 168 3,200 -300 Descending KA90
12:19PM 42.0500 -71.0333 294° West 147 169 3,000 -120 Descending KA90
12:20PM 42.0500 -71.0833 270° West 133 153 3,000  Level KA90
12:21PM 42.0667 -71.1167 304° West 131 151 3,000 -60 Level KA90
12:22PM 42.0833 -71.1500 304° West 127 146 2,900  Descending KA90
12:23PM 42.1167 -71.2000 312° West 129 148 3,000  Climbing KA90
12:24PM 42.1333 -71.2333 304° West 133 153 3,000  Level KA90
12:25PM 42.1667 -71.2667 323° Northwest 144 166 3,000  Level KA90
12:26PM 42.2000 -71.2667 360° North 146 168 3,000  Level KA90
12:27PM 42.2333 -71.2833 340° North 144 166 3,000  Level KA90
12:28PM 42.2833 -71.3000 346° North 144 166 3,000  Level KA90
12:29PM 42.3167 -71.3167 340° North 146 168 3,000  Level KA90
12:30PM 42.3667 -71.3333 346° North 156 180 3,000  Level KA90
12:31PM 42.4000 -71.3333 360° North 141 162 3,000 -480 Level KA90
12:32PM 42.4333 -71.3167 20° North 154 177 2,100 -960 Descending KA90
12:33PM 42.4667 -71.2667 48° Northeast 139 160 1,100 -720 Descending KA90
12:34PM 42.4833 -71.2500 36° Northeast 106 122 800 -360 Descending KA90